Time;durP1;ratioP1;P1;durP2;ratioP2;P2;SDS_P1;SDS_P2;PMS_P1;PMS_P2;Temp;Humidity;BMP_temperature;BMP_pressure;BME280_temperature;BME280_humidity;BME280_pressure;Samples;Min_cycle;Max_cycle;Signal;HPM_P1;HPM_P2
2022/03/11 00:00:49;;;;;;;22.83;14.00;;;1.70;85.80;;;;;;5054236;28;20209;-78
2022/03/11 00:03:15;;;;;;;29.97;15.67;;;1.70;86.30;;;;;;5052999;28;20174;-78
2022/03/11 00:05:42;;;;;;;22.30;14.27;;;1.70;86.30;;;;;;5053798;28;20182;-78
2022/03/11 00:08:08;;;;;;;22.70;14.73;;;1.60;86.20;;;;;;5053461;28;20182;-78
2022/03/11 00:10:34;;;;;;;23.03;13.80;;;1.70;86.50;;;;;;5053021;28;20175;-78
2022/03/11 00:13:00;;;;;;;23.33;14.97;;;1.70;85.90;;;;;;5053305;28;20182;-79
2022/03/11 00:15:25;;;;;;;25.67;15.13;;;1.60;85.90;;;;;;5052783;28;20273;-78
2022/03/11 00:17:51;;;;;;;28.23;15.03;;;1.70;86.80;;;;;;5052457;28;20229;-78
2022/03/11 00:20:20;;;;;;;22.87;14.97;;;1.70;86.10;;;;;;5053558;28;20186;-78
2022/03/11 00:22:47;;;;;;;24.87;14.70;;;1.70;86.50;;;;;;5053973;28;20253;-78
2022/03/11 00:25:13;;;;;;;25.20;15.37;;;1.60;86.00;;;;;;5052829;28;20592;-78
2022/03/11 00:27:39;;;;;;;24.27;14.73;;;1.70;86.90;;;;;;5052616;28;20629;-78
2022/03/11 00:30:05;;;;;;;25.80;15.87;;;1.60;86.10;;;;;;5052511;28;20236;-78
2022/03/11 00:32:31;;;;;;;27.77;15.73;;;1.60;86.80;;;;;;5053984;28;20231;-78
2022/03/11 00:34:56;;;;;;;25.37;15.17;;;1.60;87.30;;;;;;5053707;28;20210;-78
2022/03/11 00:37:22;;;;;;;26.87;15.43;;;1.70;86.70;;;;;;5053921;28;20217;-78
2022/03/11 00:39:48;;;;;;;28.80;16.30;;;1.70;86.80;;;;;;5052808;28;20174;-78
2022/03/11 00:42:13;;;;;;;26.50;16.03;;;1.70;86.80;;;;;;5052379;28;20174;-78
2022/03/11 00:44:40;;;;;;;24.87;15.23;;;1.80;86.20;;;;;;5052782;28;20193;-78
2022/03/11 00:47:07;;;;;;;25.67;16.10;;;1.80;85.50;;;;;;5052622;28;20178;-78
2022/03/11 00:49:33;;;;;;;27.60;16.27;;;1.80;85.30;;;;;;5052232;28;20185;-78
2022/03/11 00:51:58;;;;;;;33.53;18.23;;;1.80;85.10;;;;;;5052220;28;20177;-78
2022/03/11 00:54:25;;;;;;;40.07;18.30;;;1.70;85.40;;;;;;5052179;28;20289;-78
2022/03/11 00:56:50;;;;;;;54.87;22.53;;;1.80;85.90;;;;;;5052253;28;20175;-78
2022/03/11 00:59:16;;;;;;;46.73;20.10;;;1.90;85.00;;;;;;5052137;28;20265;-78
2022/03/11 01:01:42;;;;;;;44.47;22.87;;;2.10;84.10;;;;;;5052156;28;20178;-78
2022/03/11 01:04:08;;;;;;;35.30;19.83;;;2.20;83.80;;;;;;5052399;28;20236;-78
2022/03/11 01:06:33;;;;;;;33.77;18.40;;;2.20;83.50;;;;;;5053005;28;20510;-78
2022/03/11 01:08:59;;;;;;;44.30;20.63;;;2.30;83.00;;;;;;5052457;28;20277;-78
2022/03/11 01:11:24;;;;;;;39.93;21.23;;;2.30;82.20;;;;;;5052861;28;20579;-78
2022/03/11 01:13:50;;;;;;;36.10;20.07;;;2.40;81.60;;;;;;5052647;28;20209;-78
2022/03/11 01:16:15;;;;;;;29.47;18.43;;;2.50;81.00;;;;;;5052082;28;20712;-78
2022/03/11 01:18:41;;;;;;;26.33;16.07;;;2.40;80.50;;;;;;5051965;28;20202;-78
2022/03/11 01:21:08;;;;;;;24.67;15.40;;;2.40;80.60;;;;;;5051876;28;20178;-78
2022/03/11 01:23:34;;;;;;;24.07;15.97;;;2.40;80.50;;;;;;5053135;28;20201;-78
2022/03/11 01:25:59;;;;;;;25.63;16.10;;;2.40;80.60;;;;;;5053087;28;20227;-78
2022/03/11 01:28:25;;;;;;;25.60;15.50;;;2.40;80.70;;;;;;5052685;28;20206;-78
2022/03/11 01:30:51;;;;;;;23.83;15.07;;;2.30;80.60;;;;;;5056570;28;20180;-78
2022/03/11 01:33:16;;;;;;;24.63;15.70;;;2.30;80.70;;;;;;5057037;28;20691;-78
2022/03/11 01:35:42;;;;;;;24.33;15.00;;;2.20;81.00;;;;;;5056084;28;20182;-78
2022/03/11 01:38:07;;;;;;;23.67;15.77;;;2.20;81.00;;;;;;5056569;28;20213;-78
2022/03/11 01:40:33;;;;;;;24.80;15.73;;;2.10;81.10;;;;;;5056638;28;20189;-78
2022/03/11 01:42:59;;;;;;;28.33;16.63;;;1.90;81.60;;;;;;5057100;28;20166;-78
2022/03/11 01:45:24;;;;;;;25.93;15.93;;;1.70;82.30;;;;;;5056440;28;20648;-78
2022/03/11 01:47:50;;;;;;;26.37;15.47;;;1.60;83.10;;;;;;5055843;28;20221;-78
2022/03/11 01:50:15;;;;;;;27.57;15.77;;;1.40;83.50;;;;;;5055800;28;20182;-78
2022/03/11 01:52:41;;;;;;;25.23;15.43;;;1.40;84.20;;;;;;5056359;28;20179;-78
2022/03/11 01:55:07;;;;;;;26.60;16.17;;;1.40;84.40;;;;;;5055733;28;20206;-78
2022/03/11 01:57:36;;;;;;;30.17;16.50;;;1.30;84.50;;;;;;5055337;28;20206;-78
2022/03/11 02:00:07;;;;;;;25.17;15.43;;;1.30;84.70;;;;;;5055455;28;20182;-78
2022/03/11 02:02:33;;;;;;;27.43;15.73;;;1.20;85.00;;;;;;5055258;28;20220;-78
2022/03/11 02:04:59;;;;;;;27.53;16.23;;;1.20;85.30;;;;;;5055169;28;20229;-78
2022/03/11 02:07:26;;;;;;;27.00;16.00;;;1.10;85.40;;;;;;5056355;28;20193;-78
2022/03/11 02:09:53;;;;;;;26.93;15.83;;;1.10;85.90;;;;;;5055484;28;20331;-78
2022/03/11 02:12:28;;;;;;;24.43;16.47;;;1.20;86.10;;;;;;5056408;28;20201;-78
2022/03/11 02:14:53;;;;;;;26.67;16.40;;;1.00;85.90;;;;;;5055082;28;20249;-78
2022/03/11 02:17:19;;;;;;;26.23;15.17;;;1.10;85.80;;;;;;5055837;28;20206;-78
2022/03/11 02:19:44;;;;;;;25.50;15.87;;;1.00;85.30;;;;;;5054929;28;20179;-78
2022/03/11 02:22:11;;;;;;;28.40;14.80;;;1.00;85.00;;;;;;5056141;28;20257;-78
2022/03/11 02:24:37;;;;;;;23.20;14.13;;;1.10;84.80;;;;;;5055196;28;20440;-78
2022/03/11 02:27:03;;;;;;;24.90;15.13;;;1.00;84.30;;;;;;5055237;28;20179;-78
2022/03/11 02:29:28;;;;;;;28.37;14.90;;;1.00;84.30;;;;;;5056045;28;20174;-78
2022/03/11 02:31:54;;;;;;;27.40;15.53;;;1.00;84.00;;;;;;5054810;28;20278;-78
2022/03/11 02:34:20;;;;;;;28.33;15.27;;;1.00;83.60;;;;;;5056128;28;20252;-78
2022/03/11 02:36:45;;;;;;;22.53;15.20;;;1.00;83.80;;;;;;5054985;28;20272;-78
2022/03/11 02:39:12;;;;;;;23.77;14.57;;;1.00;84.10;;;;;;5054581;28;20210;-78
2022/03/11 02:41:41;;;;;;;26.07;14.63;;;1.00;83.70;;;;;;5054176;28;20186;-78
2022/03/11 02:44:06;;;;;;;22.60;14.97;;;0.90;83.20;;;;;;5054777;28;20763;-78
2022/03/11 02:46:32;;;;;;;26.53;14.87;;;0.90;83.60;;;;;;5055053;28;20202;-78
2022/03/11 02:48:58;;;;;;;24.03;15.33;;;0.90;83.80;;;;;;5055033;28;20188;-78
2022/03/11 02:51:23;;;;;;;25.47;15.17;;;0.90;84.00;;;;;;5054780;28;20189;-78
2022/03/11 02:53:49;;;;;;;25.50;15.43;;;0.90;84.30;;;;;;5054345;28;20201;-78
2022/03/11 02:56:15;;;;;;;25.53;14.60;;;0.70;84.30;;;;;;5054340;28;20185;-78
2022/03/11 02:58:41;;;;;;;23.97;14.90;;;0.70;84.50;;;;;;5055445;28;20204;-78
2022/03/11 03:01:08;;;;;;;22.23;14.77;;;0.60;84.90;;;;;;5054530;28;20236;-78
2022/03/11 03:03:33;;;;;;;26.43;14.83;;;0.50;85.30;;;;;;5055003;28;20193;-78
2022/03/11 03:05:59;;;;;;;24.03;14.07;;;0.50;85.20;;;;;;5055342;28;20170;-78
2022/03/11 03:08:25;;;;;;;24.13;14.23;;;0.40;85.00;;;;;;5054323;28;20571;-78
2022/03/11 03:10:50;;;;;;;22.47;14.37;;;0.20;85.30;;;;;;5054176;28;20174;-78
2022/03/11 03:13:16;;;;;;;26.40;15.80;;;0.10;86.10;;;;;;5054209;28;20182;-78
2022/03/11 03:15:42;;;;;;;22.80;14.30;;;0.10;86.40;;;;;;5053959;28;20198;-78
2022/03/11 03:18:07;;;;;;;23.27;14.37;;;0.10;86.50;;;;;;5054166;28;20216;-77
2022/03/11 03:20:33;;;;;;;22.43;14.57;;;0.20;86.10;;;;;;5053875;28;20223;-77
2022/03/11 03:22:58;;;;;;;24.20;13.60;;;0.10;85.60;;;;;;5053747;28;20181;-78
2022/03/11 03:25:24;;;;;;;22.83;14.03;;;0.10;86.00;;;;;;5054911;28;20208;-78
2022/03/11 03:27:50;;;;;;;22.90;13.23;;;0.10;85.70;;;;;;5054926;28;20182;-78
2022/03/11 03:30:16;;;;;;;24.67;13.83;;;0.10;85.30;;;;;;5054008;28;20188;-78
2022/03/11 03:32:42;;;;;;;20.90;12.93;;;0.00;85.00;;;;;;5053605;28;20264;-78
2022/03/11 03:35:10;;;;;;;22.53;13.93;;;-0.10;85.30;;;;;;5053801;28;20263;-78
2022/03/11 03:37:36;;;;;;;24.57;14.63;;;-0.20;86.30;;;;;;5053487;28;20209;-78
2022/03/11 03:40:02;;;;;;;20.50;13.37;;;-0.30;87.20;;;;;;5054975;28;20178;-77
2022/03/11 03:42:27;;;;;;;26.77;15.27;;;-0.50;88.70;;;;;;5053400;28;20182;-77
2022/03/11 03:44:56;;;;;;;27.70;15.37;;;-0.40;89.50;;;;;;5053320;28;20194;-78
2022/03/11 03:47:22;;;;;;;28.20;15.90;;;-0.40;89.40;;;;;;5053710;28;20216;-78
2022/03/11 03:49:47;;;;;;;30.10;15.47;;;-0.50;89.40;;;;;;5053298;28;20178;-78
2022/03/11 03:52:13;;;;;;;26.80;14.30;;;-0.50;89.80;;;;;;5052368;28;20181;-78
2022/03/11 03:54:39;;;;;;;32.03;16.17;;;-0.40;90.00;;;;;;5054642;28;20221;-78
2022/03/11 03:57:07;;;;;;;25.57;14.00;;;-0.40;89.70;;;;;;5054363;28;20174;-78
2022/03/11 03:59:33;;;;;;;18.90;12.83;;;-0.40;89.30;;;;;;5053114;28;20205;-78
2022/03/11 04:01:58;;;;;;;20.90;12.93;;;-0.30;88.00;;;;;;5053082;28;20233;-78
2022/03/11 04:04:24;;;;;;;21.17;12.80;;;-0.50;86.50;;;;;;5053198;28;20225;-78
2022/03/11 04:06:49;;;;;;;24.00;13.70;;;-0.50;87.30;;;;;;5053030;28;20204;-78
2022/03/11 04:09:15;;;;;;;23.70;14.00;;;-0.40;87.40;;;;;;5054345;28;20249;-78
2022/03/11 04:11:41;;;;;;;25.50;13.73;;;-0.40;87.40;;;;;;5053841;28;20179;-78
2022/03/11 04:14:07;;;;;;;22.00;12.87;;;-0.50;87.20;;;;;;5052839;28;20222;-78
2022/03/11 04:16:33;;;;;;;23.67;12.80;;;-0.50;87.30;;;;;;5053024;28;20205;-78
2022/03/11 04:18:59;;;;;;;22.90;12.87;;;-0.60;87.60;;;;;;5052629;28;20198;-78
2022/03/11 04:21:25;;;;;;;22.70;12.43;;;-0.70;87.50;;;;;;5053217;28;20178;-78
2022/03/11 04:23:51;;;;;;;22.40;12.60;;;-0.70;87.50;;;;;;5053064;28;20201;-78
2022/03/11 04:26:17;;;;;;;20.23;12.50;;;-0.70;87.10;;;;;;5052898;28;20197;-78
2022/03/11 04:28:42;;;;;;;19.80;11.90;;;-0.70;87.40;;;;;;5053440;28;20174;-78
2022/03/11 04:31:10;;;;;;;17.83;11.77;;;-0.70;87.50;;;;;;5052620;28;20553;-78
2022/03/11 04:33:37;;;;;;;29.13;13.63;;;-0.60;86.70;;;;;;5053929;28;20232;-78
2022/03/11 04:36:03;;;;;;;21.87;12.60;;;-0.60;86.50;;;;;;5053404;28;20214;-78
2022/03/11 04:38:29;;;;;;;20.40;11.67;;;-0.50;86.30;;;;;;5052430;28;20209;-78
2022/03/11 04:40:55;;;;;;;20.10;12.17;;;-0.50;85.70;;;;;;5052844;28;20182;-78
2022/03/11 04:43:21;;;;;;;16.87;11.17;;;-0.60;85.00;;;;;;5053847;28;20276;-78
2022/03/11 04:45:47;;;;;;;20.20;12.23;;;-0.70;85.20;;;;;;5052665;28;20174;-78
2022/03/11 04:48:13;;;;;;;18.40;11.87;;;-0.70;85.60;;;;;;5052651;28;20227;-78
2022/03/11 04:50:39;;;;;;;20.60;11.40;;;-0.70;85.80;;;;;;5052288;28;20186;-78
2022/03/11 04:53:05;;;;;;;19.70;10.10;;;-0.80;85.20;;;;;;5053459;28;20559;-78
2022/03/11 04:55:31;;;;;;;18.83;11.47;;;-0.90;85.20;;;;;;5052769;28;20182;-77
2022/03/11 04:57:57;;;;;;;19.90;11.07;;;-0.80;84.60;;;;;;5052379;28;20320;-77
2022/03/11 05:00:22;;;;;;;16.00;9.70;;;-0.90;84.60;;;;;;5053428;28;20261;-77
2022/03/11 05:02:48;;;;;;;17.37;11.03;;;-1.10;84.20;;;;;;5052022;28;20182;-77
2022/03/11 05:05:15;;;;;;;20.13;12.57;;;-1.10;85.00;;;;;;5053340;28;20289;-78
2022/03/11 05:07:42;;;;;;;22.87;13.87;;;-1.10;84.90;;;;;;5052276;28;20236;-78
2022/03/11 05:10:09;;;;;;;23.60;13.90;;;-1.10;85.00;;;;;;5052494;28;20386;-78
2022/03/11 05:12:35;;;;;;;23.20;12.40;;;-1.20;85.40;;;;;;5052100;28;20182;-78
2022/03/11 05:15:02;;;;;;;22.20;11.97;;;-1.20;84.60;;;;;;5051949;28;20212;-78
2022/03/11 05:17:27;;;;;;;34.10;15.33;;;-1.40;84.50;;;;;;5051874;28;20269;-78
2022/03/11 05:19:53;;;;;;;41.13;19.43;;;-1.50;84.90;;;;;;5052329;28;20740;-78
2022/03/11 05:22:19;;;;;;;39.30;19.77;;;-1.50;85.80;;;;;;5053429;28;20170;-78
2022/03/11 05:24:45;;;;;;;39.20;19.80;;;-1.40;86.50;;;;;;5053577;28;20202;-78
2022/03/11 05:27:10;;;;;;;31.37;13.73;;;-1.40;86.20;;;;;;5052231;28;20261;-78
2022/03/11 05:29:36;;;;;;;26.83;13.80;;;-1.50;86.70;;;;;;5053121;28;20174;-78
2022/03/11 05:32:03;;;;;;;24.00;13.77;;;-1.50;86.90;;;;;;5051895;28;20178;-77
2022/03/11 05:34:52;;;;;;;24.37;12.97;;;-1.50;87.90;;;;;;5051844;28;20202;-78
2022/03/11 05:37:18;;;;;;;35.50;13.93;;;-1.50;87.20;;;;;;5052877;28;20257;-77
2022/03/11 05:39:44;;;;;;;23.87;13.90;;;-1.60;87.10;;;;;;5052285;28;20182;-77
2022/03/11 05:42:09;;;;;;;32.80;15.63;;;-1.60;87.90;;;;;;5051781;28;20285;-78
2022/03/11 05:44:35;;;;;;;25.17;15.07;;;-1.60;89.60;;;;;;5052138;28;20201;-78
2022/03/11 05:47:01;;;;;;;30.80;16.73;;;-1.50;89.10;;;;;;5051976;28;20178;-78
2022/03/11 05:49:26;;;;;;;31.80;16.53;;;-1.50;88.70;;;;;;5051755;28;20182;-78
2022/03/11 05:51:52;;;;;;;30.17;17.23;;;-1.60;88.90;;;;;;5051542;28;20183;-78
2022/03/11 05:54:18;;;;;;;32.50;16.80;;;-1.60;88.90;;;;;;5051550;28;20198;-78
2022/03/11 05:56:44;;;;;;;27.83;15.87;;;-1.50;88.50;;;;;;5051669;28;20659;-78
2022/03/11 05:59:09;;;;;;;31.83;15.90;;;-1.50;88.10;;;;;;5052701;28;20672;-78
2022/03/11 06:01:35;;;;;;;27.77;15.00;;;-1.50;87.80;;;;;;5051516;28;20182;-78
2022/03/11 06:04:03;;;;;;;24.50;13.77;;;-1.70;87.50;;;;;;5052733;28;20194;-78
2022/03/11 06:06:30;;;;;;;23.60;14.17;;;-1.80;88.20;;;;;;5052995;28;20170;-78
2022/03/11 06:08:56;;;;;;;25.20;14.43;;;-1.70;88.80;;;;;;5051589;28;20207;-78
2022/03/11 06:11:22;;;;;;;32.17;13.60;;;-1.60;87.80;;;;;;5051445;28;20178;-78
2022/03/11 06:13:47;;;;;;;24.27;12.37;;;-1.70;87.50;;;;;;5052263;28;20301;-78
2022/03/11 06:16:13;;;;;;;19.77;12.00;;;-1.80;87.80;;;;;;5053709;28;20189;-78
2022/03/11 06:18:39;;;;;;;26.90;11.97;;;-1.90;88.90;;;;;;5055264;28;20210;-77
2022/03/11 06:21:05;;;;;;;24.57;12.10;;;-1.80;88.90;;;;;;5055372;28;20186;-77
2022/03/11 06:23:31;;;;;;;22.90;11.67;;;-1.80;88.90;;;;;;5054927;28;20232;-77
2022/03/11 06:25:57;;;;;;;23.07;11.90;;;-1.70;89.40;;;;;;5055191;28;20178;-77
2022/03/11 06:28:23;;;;;;;21.87;11.47;;;-1.70;89.30;;;;;;5056326;28;20181;-78
2022/03/11 06:30:49;;;;;;;19.63;12.27;;;-1.60;89.30;;;;;;5056052;28;20186;-78
2022/03/11 06:33:16;;;;;;;19.50;12.37;;;-1.60;89.90;;;;;;5054779;28;20182;-77
2022/03/11 06:35:42;;;;;;;24.20;12.53;;;-1.50;89.70;;;;;;5055333;28;20174;-78
2022/03/11 06:38:23;;;;;;;30.77;14.23;;;-1.40;89.70;;;;;;5054998;28;20214;-77
2022/03/11 06:41:07;;;;;;;29.60;14.87;;;-1.20;88.60;;;;;;5054706;28;20177;-78
2022/03/11 06:43:34;;;;;;;31.50;15.87;;;-1.10;87.80;;;;;;5055371;28;20202;-78
2022/03/11 06:45:59;;;;;;;42.90;21.70;;;-0.90;87.40;;;;;;5055751;28;20201;-78
2022/03/11 06:48:25;;;;;;;43.80;24.83;;;-0.70;86.80;;;;;;5054532;28;20174;-77
2022/03/11 06:50:52;;;;;;;62.83;29.90;;;-0.50;86.50;;;;;;5054438;28;20657;-77
2022/03/11 06:53:18;;;;;;;61.97;28.83;;;-0.30;86.20;;;;;;5055182;28;20185;-78
2022/03/11 06:55:44;;;;;;;56.13;32.33;;;-0.20;85.20;;;;;;5055470;28;20178;-77
2022/03/11 06:58:09;;;;;;;59.23;33.40;;;-0.10;83.70;;;;;;5055746;28;20289;-78
2022/03/11 07:00:35;;;;;;;52.27;31.37;;;-0.20;83.50;;;;;;5054365;28;20185;-78
2022/03/11 07:03:02;;;;;;;43.17;26.00;;;0.00;83.50;;;;;;5055360;28;20229;-78
2022/03/11 07:05:28;;;;;;;38.47;21.90;;;0.00;81.90;;;;;;5055454;28;20170;-78
2022/03/11 07:07:53;;;;;;;35.90;19.67;;;0.10;83.20;;;;;;5054458;28;20209;-78
2022/03/11 07:10:20;;;;;;;37.53;20.27;;;0.30;83.80;;;;;;5054010;28;20202;-78
2022/03/11 07:13:03;;;;;;;31.57;18.00;;;0.50;83.70;;;;;;5053792;28;20181;-78
2022/03/11 07:15:30;;;;;;;29.57;16.83;;;0.70;83.10;;;;;;5054162;28;20170;-78
2022/03/11 07:17:55;;;;;;;31.33;15.60;;;0.90;82.50;;;;;;5054227;28;20206;-78
2022/03/11 07:20:21;;;;;;;37.30;21.17;;;1.10;81.80;;;;;;5055071;28;20245;-77
2022/03/11 07:22:48;;;;;;;37.47;20.30;;;1.30;81.00;;;;;;5055407;28;20174;-78
2022/03/11 07:25:14;;;;;;;31.23;17.47;;;1.40;80.30;;;;;;5053761;28;20251;-78
2022/03/11 07:27:40;;;;;;;24.10;14.27;;;1.60;80.70;;;;;;5055046;28;20182;-78
2022/03/11 07:30:09;;;;;;;23.00;13.33;;;1.70;81.30;;;;;;5053776;28;20177;-78
2022/03/11 07:32:34;;;;;;;24.33;13.10;;;1.80;81.40;;;;;;5054790;28;20181;-78
2022/03/11 07:35:08;;;;;;;26.07;13.33;;;1.90;81.80;;;;;;5053569;28;20198;-78
2022/03/11 07:37:39;;;;;;;29.57;14.17;;;2.10;81.70;;;;;;5054302;28;20155;-78
2022/03/11 07:40:05;;;;;;;28.47;13.07;;;2.10;80.70;;;;;;5053294;28;20171;-78
2022/03/11 07:42:36;;;;;;;23.73;12.30;;;2.20;80.10;;;;;;5053337;28;20224;-78
2022/03/11 07:45:02;;;;;;;28.00;13.60;;;2.30;79.70;;;;;;5053681;28;20213;-78
2022/03/11 07:47:28;;;;;;;22.27;13.27;;;2.40;79.30;;;;;;5054381;28;20257;-78
2022/03/11 07:49:54;;;;;;;31.23;14.50;;;2.60;78.40;;;;;;5053206;28;20220;-78
2022/03/11 07:52:22;;;;;;;23.63;13.00;;;2.70;78.30;;;;;;5053288;28;20167;-78
2022/03/11 07:54:48;;;;;;;17.17;10.27;;;2.70;75.60;;;;;;5052644;28;20210;-78
2022/03/11 07:57:14;;;;;;;18.10;11.83;;;2.80;72.00;;;;;;5052869;28;20178;-78
2022/03/11 07:59:41;;;;;;;17.17;10.83;;;3.00;71.20;;;;;;5052349;28;20202;-78
2022/03/11 08:02:07;;;;;;;14.73;9.17;;;3.10;70.60;;;;;;5052500;28;20652;-78
2022/03/11 08:18:41;;;;;;;9.60;6.00;;;3.60;60.90;;;;;;5857696;23;20233;-79
2022/03/11 08:21:08;;;;;;;9.93;5.63;;;3.60;55.30;;;;;;4993656;28;20196;-80
2022/03/11 08:23:33;;;;;;;13.47;6.63;;;3.70;53.80;;;;;;4993952;28;20200;-80
2022/03/11 08:25:59;;;;;;;13.80;6.43;;;3.80;54.30;;;;;;4993786;28;20257;-80
2022/03/11 08:28:25;;;;;;;9.67;6.03;;;3.80;55.50;;;;;;4994450;28;20184;-80
2022/03/11 08:30:51;;;;;;;9.93;6.57;;;4.00;55.40;;;;;;4994013;28;20174;-80
2022/03/11 08:33:22;;;;;;;9.73;6.20;;;4.20;55.10;;;;;;4993824;28;20180;-80
2022/03/11 08:35:49;;;;;;;12.87;6.00;;;4.00;53.30;;;;;;4994485;28;20180;-80
2022/03/11 08:38:15;;;;;;;9.37;6.00;;;4.20;53.20;;;;;;4993555;28;20204;-80
2022/03/11 08:40:41;;;;;;;11.17;7.10;;;4.40;53.00;;;;;;4996033;28;20168;-80
2022/03/11 08:43:08;;;;;;;9.80;5.90;;;4.40;51.20;;;;;;4996164;28;20179;-78
2022/03/11 08:45:33;;;;;;;10.43;5.23;;;4.50;50.40;;;;;;4995492;28;20184;-78
2022/03/11 08:47:59;;;;;;;7.57;5.50;;;4.50;50.30;;;;;;4995593;28;20200;-78
2022/03/11 08:50:25;;;;;;;20.27;9.23;;;4.40;48.60;;;;;;4995389;28;20180;-78
2022/03/11 08:52:50;;;;;;;9.73;6.40;;;4.40;49.40;;;;;;4995096;28;20176;-78
2022/03/11 08:55:16;;;;;;;13.83;8.13;;;4.60;51.00;;;;;;4994040;28;20203;-78
2022/03/11 08:57:49;;;;;;;14.57;7.57;;;4.70;49.90;;;;;;4994860;28;20209;-80
2022/03/11 09:00:17;;;;;;;7.17;5.30;;;4.80;50.10;;;;;;4994069;28;20180;-79
2022/03/11 09:02:52;;;;;;;9.67;5.30;;;4.70;48.20;;;;;;4993316;28;20188;-81
2022/03/11 09:05:20;;;;;;;7.53;5.27;;;4.80;49.10;;;;;;4993786;28;20267;-80
2022/03/11 09:07:48;;;;;;;8.53;5.37;;;4.90;48.20;;;;;;4993475;28;20230;-80
2022/03/11 09:10:14;;;;;;;7.30;5.10;;;4.90;48.00;;;;;;4993328;28;20231;-81
2022/03/11 09:12:40;;;;;;;8.73;5.47;;;5.00;48.20;;;;;;4994155;28;20180;-81
2022/03/11 09:15:07;;;;;;;8.80;5.37;;;5.00;46.90;;;;;;4993385;28;20275;-81
2022/03/11 09:17:33;;;;;;;9.87;5.30;;;5.10;47.60;;;;;;4994161;28;20200;-81
2022/03/11 09:20:03;;;;;;;7.37;5.33;;;5.20;47.40;;;;;;4992959;28;20196;-80
2022/03/11 09:22:29;;;;;;;6.27;4.60;;;5.20;46.70;;;;;;4992895;28;20187;-80
2022/03/11 09:24:55;;;;;;;8.90;4.93;;;5.20;46.20;;;;;;4993872;28;20215;-80
2022/03/11 09:27:23;;;;;;;9.00;5.50;;;5.10;45.60;;;;;;4993138;28;20200;-80
2022/03/11 09:29:49;;;;;;;14.27;5.47;;;5.10;45.60;;;;;;4994446;28;20176;-80
2022/03/11 09:32:15;;;;;;;7.00;5.50;;;5.30;46.50;;;;;;4993338;28;20187;-79
2022/03/11 09:34:41;;;;;;;7.83;5.27;;;5.30;46.10;;;;;;4994439;28;20703;-78
2022/03/11 09:37:07;;;;;;;7.90;5.50;;;5.40;46.00;;;;;;4993389;28;20617;-79
2022/03/11 09:39:32;;;;;;;8.10;5.60;;;5.50;45.90;;;;;;4993614;28;20196;-78
2022/03/11 09:41:58;;;;;;;7.60;5.20;;;5.50;45.30;;;;;;4993468;28;20187;-78
2022/03/11 09:44:24;;;;;;;8.77;5.30;;;5.50;44.80;;;;;;4994753;28;20164;-79
2022/03/11 09:46:51;;;;;;;22.07;10.57;;;5.70;45.70;;;;;;4994236;28;20199;-78
2022/03/11 09:49:17;;;;;;;13.07;6.93;;;5.90;45.10;;;;;;4993951;28;20188;-78
2022/03/11 09:51:45;;;;;;;7.67;5.73;;;5.90;43.90;;;;;;4996738;28;20276;-78
2022/03/11 09:54:12;;;;;;;10.80;5.30;;;6.00;45.10;;;;;;4997432;28;20184;-79
2022/03/11 09:56:40;;;;;;;7.47;4.87;;;6.00;44.20;;;;;;4997412;28;20212;-79
2022/03/11 09:59:06;;;;;;;10.90;5.57;;;6.10;43.80;;;;;;4997209;28;20287;-78
2022/03/11 10:01:33;;;;;;;11.57;4.93;;;6.20;43.10;;;;;;4997216;28;20238;-78
2022/03/11 10:03:59;;;;;;;13.27;5.60;;;6.30;43.60;;;;;;4996593;28;20180;-79
2022/03/11 10:06:44;;;;;;;10.67;5.17;;;6.40;44.20;;;;;;4996358;28;20334;-79
2022/03/11 10:09:37;;;;;;;12.30;5.60;;;6.60;43.50;;;;;;4996350;28;20180;-79
2022/03/11 10:12:23;;;;;;;16.63;7.95;;;6.80;44.30;;;;;;4997348;28;20180;-78
2022/03/11 10:15:03;;;;;;;12.63;6.47;;;6.80;42.20;;;;;;4997089;28;20231;-80
2022/03/11 10:17:38;;;;;;;9.73;4.97;;;6.70;42.20;;;;;;4998152;28;20207;-79
2022/03/11 10:20:10;;;;;;;11.03;6.13;;;6.70;42.80;;;;;;4995936;28;20658;-79
2022/03/11 10:22:36;;;;;;;11.63;6.75;;;6.70;41.90;;;;;;4996141;28;20187;-79
2022/03/11 10:25:19;;;;;;;10.35;5.28;;;6.60;41.90;;;;;;4995786;28;20634;-79
2022/03/11 10:28:27;;;;;;;16.10;7.05;;;6.70;43.00;;;;;;4995902;28;20200;-79
2022/03/11 10:30:53;;;;;;;7.57;5.15;;;7.00;43.80;;;;;;4997597;28;20247;-79
2022/03/11 10:33:21;;;;;;;13.93;5.47;;;7.10;41.90;;;;;;4995513;28;20270;-79
2022/03/11 10:35:47;;;;;;;6.68;4.68;;;7.10;41.40;;;;;;4994369;28;20231;-79
2022/03/11 10:38:21;;;;;;;9.95;5.32;;;7.30;41.50;;;;;;4996664;28;20267;-79
2022/03/11 10:40:58;;;;;;;10.30;5.20;;;7.40;40.30;;;;;;4997298;28;20195;-79
2022/03/11 10:43:26;;;;;;;10.57;5.25;;;7.40;39.20;;;;;;4998030;28;20184;-80
2022/03/11 10:45:57;;;;;;;8.27;5.93;;;7.40;39.30;;;;;;4995514;28;20199;-78
2022/03/11 10:48:44;;;;;;;8.52;5.57;;;7.40;40.00;;;;;;4995553;28;20232;-79
2022/03/11 10:51:32;;;;;;;11.20;5.95;;;7.40;40.20;;;;;;4996792;28;20168;-79
2022/03/11 10:54:02;;;;;;;10.70;5.78;;;7.40;40.10;;;;;;4997470;28;20165;-79
2022/03/11 10:56:36;;;;;;;8.05;5.15;;;7.60;40.90;;;;;;4995944;28;20203;-79
2022/03/11 10:59:20;;;;;;;8.70;5.10;;;7.70;39.70;;;;;;4996819;28;20191;-79
2022/03/11 11:01:46;;;;;;;7.05;4.97;;;7.80;39.40;;;;;;4994885;28;20274;-79
2022/03/11 11:04:15;;;;;;;7.25;4.80;;;7.90;38.60;;;;;;4995679;28;20217;-79
2022/03/11 11:06:41;;;;;;;5.30;4.45;;;8.00;39.60;;;;;;4994979;28;20204;-79
2022/03/11 11:09:08;;;;;;;5.97;4.43;;;8.10;38.20;;;;;;4995819;28;20263;-79
2022/03/11 11:11:35;;;;;;;5.57;4.30;;;8.20;37.70;;;;;;4995121;28;20195;-79
2022/03/11 11:14:05;;;;;;;7.15;5.28;;;8.20;36.60;;;;;;4995150;28;20279;-79
2022/03/11 11:16:39;;;;;;;8.80;4.15;;;8.30;36.80;;;;;;4995062;28;20200;-80
2022/03/11 11:19:07;;;;;;;9.70;4.38;;;8.40;37.40;;;;;;4997010;28;20208;-80
2022/03/11 11:21:35;;;;;;;6.45;4.47;;;8.40;37.70;;;;;;4996071;28;20222;-79
2022/03/11 11:24:04;;;;;;;6.38;4.53;;;8.40;35.80;;;;;;4995939;28;20192;-80
2022/03/11 11:26:40;;;;;;;7.20;5.05;;;8.40;35.10;;;;;;4996001;28;20278;-79
2022/03/11 11:29:06;;;;;;;13.80;5.28;;;8.30;35.20;;;;;;4995907;28;20235;-80
2022/03/11 11:31:34;;;;;;;6.75;5.03;;;8.40;37.10;;;;;;4994923;28;20184;-80
2022/03/11 11:33:59;;;;;;;7.20;4.32;;;8.60;35.80;;;;;;4993190;28;20180;-80
2022/03/11 11:36:51;;;;;;;11.43;4.45;;;8.70;36.40;;;;;;4993366;28;20253;-80
2022/03/11 11:39:17;;;;;;;25.05;12.57;;;8.70;36.00;;;;;;4994893;28;20578;-80
2022/03/11 11:41:57;;;;;;;13.02;8.45;;;8.70;34.60;;;;;;4995039;28;20209;-80
2022/03/11 11:44:35;;;;;;;9.25;5.25;;;8.60;34.40;;;;;;4996183;28;20161;-80
2022/03/11 11:47:12;;;;;;;9.63;6.57;;;8.60;35.20;;;;;;4994875;28;20768;-80
2022/03/11 11:49:55;;;;;;;13.68;5.50;;;8.60;35.10;;;;;;4995689;28;20188;-80
2022/03/11 11:52:36;;;;;;;10.13;4.82;;;8.60;36.10;;;;;;4996362;28;20168;-80
2022/03/11 11:55:19;;;;;;;5.47;4.60;;;8.60;34.10;;;;;;4994598;28;20164;-80
2022/03/11 11:57:46;;;;;;;9.25;5.30;;;8.50;33.50;;;;;;4994644;28;20211;-80
2022/03/11 12:00:36;;;;;;;10.93;6.72;;;8.50;34.10;;;;;;4994877;28;20161;-80
2022/03/11 12:03:03;;;;;;;7.70;4.55;;;8.50;34.10;;;;;;4993927;28;20172;-80
2022/03/11 12:05:45;;;;;;;8.85;6.82;;;8.70;35.10;;;;;;4993958;28;20207;-80
2022/03/11 12:08:32;;;;;;;10.43;4.57;;;8.70;34.40;;;;;;4994388;28;20200;-79
2022/03/11 12:10:58;;;;;;;9.27;4.88;;;8.80;35.00;;;;;;4993836;28;20219;-80
2022/03/11 12:13:38;;;;;;;6.75;5.10;;;8.80;34.70;;;;;;4993851;28;20188;-81
2022/03/11 12:16:16;;;;;;;7.57;4.80;;;8.90;35.00;;;;;;4994593;28;20219;-81
2022/03/11 12:18:46;;;;;;;6.82;4.53;;;9.00;34.30;;;;;;4994043;28;20211;-80
2022/03/11 12:21:39;;;;;;;8.65;5.20;;;9.00;34.90;;;;;;4995074;28;20176;-81
2022/03/11 12:24:31;;;;;;;7.35;5.68;;;9.10;34.20;;;;;;4995381;28;20176;-80
2022/03/11 12:26:57;;;;;;;6.20;4.72;;;9.10;33.80;;;;;;4993414;28;20196;-80
2022/03/11 12:29:37;;;;;;;9.90;5.88;;;9.10;34.50;;;;;;4993069;28;20198;-80
2022/03/11 12:32:07;;;;;;;6.90;4.90;;;9.20;33.90;;;;;;4994217;28;20180;-81
2022/03/11 12:34:35;;;;;;;9.90;4.68;;;9.20;33.80;;;;;;4995660;28;20184;-81
2022/03/11 12:37:01;;;;;;;9.45;4.93;;;9.20;34.40;;;;;;4994345;28;20690;-80
2022/03/11 12:39:30;;;;;;;9.13;5.43;;;9.30;33.80;;;;;;4993792;28;20223;-81
2022/03/11 12:41:56;;;;;;;10.60;7.05;;;9.30;34.70;;;;;;4995828;28;20245;-81
2022/03/11 12:44:21;;;;;;;11.18;5.20;;;9.30;33.50;;;;;;4994328;28;20204;-80
2022/03/11 12:46:47;;;;;;;6.28;4.70;;;9.30;33.30;;;;;;4995063;28;20211;-81
2022/03/11 12:49:24;;;;;;;7.88;4.82;;;9.30;33.80;;;;;;4993923;28;20263;-81
2022/03/11 12:52:13;;;;;;;9.27;5.15;;;9.30;33.70;;;;;;4994241;28;20237;-80
2022/03/11 12:54:38;;;;;;;9.85;5.13;;;9.40;33.50;;;;;;4994115;28;20182;-80
2022/03/11 12:57:04;;;;;;;5.70;4.45;;;9.40;33.20;;;;;;4993486;28;20200;-80
2022/03/11 12:59:29;;;;;;;6.72;4.95;;;9.40;34.20;;;;;;4993107;28;20204;-80